• Join FlightAware (Why Join?)
  • Login
  • US Flag 
05:51AM EST


 

Airport Tracker/Info


-or-


 

Live Flight TrackerFlight Track Log ✈ EJA898 ✈ 14-Apr-2013 ✈ KAMA - KDAL

Flight Track Log - Related Links

Times and Time Zones

All times are in EDT time to prevent confusion due to time zone crossing. See the EJA898 flight status page for this flight to view local times or setup timezone preferences in your user account.

Time Position Orientation Groundspeed Altitude Reporting Facility
EDT Latitude Longitude Course Direction KTS MPH feet Rate Location/Type
06:15PM 35.1750 -101.6222 101° East 272 313 7,800  Level Albuquerque Center
06:16PM 35.1692 -101.5236 94° East 286 329 10,700 2,160 Climbing Albuquerque Center
06:17PM 35.1603 -101.3803 94° East 349 402 12,300 1,500 Climbing Albuquerque Center
06:18PM 35.1278 -101.2531 107° East 390 449 13,800 1,380 Climbing Albuquerque Center
06:19PM 35.0747 -101.1314 118° Southeast 404 465 15,200 2,160 Climbing Albuquerque Center
06:20PM 35.0823 -101.0104 101° East  Level FlightAware Approximate
06:20PM 35.0203 -101.0078 118° Southeast 412 474 18,300  Level Albuquerque Center
06:21PM 34.9711 -100.8958 118° Southeast 385 443 21,600 2,040 Climbing Albuquerque Center
06:22PM 34.9178 -100.7800 119° Southeast 386 444 22,600 660 Climbing Albuquerque Center
06:23PM 34.8586 -100.6475 119° Southeast 431 496 23,000 180 Climbing Albuquerque Center
06:24PM 34.7794 -100.4736 119° Southeast 485 558 23,000  Level Albuquerque Center
06:26PM 34.6456 -100.1697 118° Southeast 497 572 23,000  Level Albuquerque Center
06:27PM 34.5839 -100.0256 117° Southeast 487 560 23,000  Level Albuquerque Center
06:28PM 34.5250 -99.8869 117° Southeast 470 541 23,000  Level Albuquerque Center
06:29PM 34.4825 -99.7867 117° Southeast 469 540 23,000  Level Fort Worth Center
06:30PM 34.4164 -99.6364 118° Southeast 463 533 23,000  Level Fort Worth Center
06:31PM 34.3564 -99.4964 117° Southeast 463 533 23,000  Level Fort Worth Center
06:32PM 34.2981 -99.3592 117° Southeast 463 533 23,000  Level Fort Worth Center
06:33PM 34.2414 -99.2300 118° Southeast 457 526 23,000  Level Fort Worth Center
06:34PM 34.1767 -99.0856 118° Southeast 443 510 23,000  Level Fort Worth Center
06:35PM 34.1281 -98.9817 119° Southeast 426 490 23,000  Level Fort Worth Center
06:36PM 34.0733 -98.8478 116° Southeast 427 491 23,000  Level Fort Worth Center
06:37PM 34.0203 -98.7292 118° Southeast 420 483 23,000  Level Fort Worth Center
06:38PM 33.9653 -98.6081 119° Southeast 414 476 23,000  Level Fort Worth Center
06:39PM 33.9119 -98.4847 117° Southeast 414 476 23,000  Level Fort Worth Center
06:40PM 33.8506 -98.3539 119° Southeast 414 476 23,000 -180 Level Fort Worth Center
06:41PM 33.7969 -98.2333 118° Southeast 414 476 22,700 -1,140 Descending Fort Worth Center
06:42PM 33.7456 -98.1153 118° Southeast 404 465 20,800 -1,800 Descending Fort Worth Center
06:43PM 33.6919 -97.9950 118° Southeast 399 459 19,100 1,080 Descending Fort Worth Center
06:44PM 33.6342 -97.8675 119° Southeast 414 476 23,000 -1,980 Climbing Fort Worth Center
06:45PM 33.5761 -97.7375 118° Southeast 429 494 15,200 -4,800 Descending Fort Worth Center
06:46PM 33.5242 -97.6278 120° Southeast 434 499 13,500 -1,920 Descending Fort Worth Center
06:47PM 33.4617 -97.4981 120° Southeast 419 482 11,400 -1,560 Descending Fort Worth Center
06:48PM 33.3992 -97.4158 132° Southeast 371 427 10,400 -1,440 Descending Fort Worth Center
06:49PM 33.3572 -97.3389 123° Southeast 320 368 8,600 -1,680 Descending Fort Worth Center
06:50PM 33.3572 -97.2194 90° East 297 342 7,100 -1,440 Descending Fort Worth Center
06:51PM 33.3592 -97.1275 89° East 302 348 5,800 -1,200 Descending Fort Worth Center
06:52PM 33.3589 -97.0181 90° East 307 353 4,800 -900 Descending Fort Worth Center
06:53PM 33.3417 -96.9361 104° East 285 328 4,000 -420 Descending Fort Worth Center
06:54PM 33.2914 -96.8567 127° Southeast 264 304 4,000  Level Fort Worth Center
06:55PM 33.2308 -96.8422 169° South 241 277 4,000  Level Fort Worth Center
06:56PM 33.1556 -96.8253 169° South 246 283 4,000  Level Fort Worth Center
06:57PM 33.0972 -96.8258 180° South 246 283 4,000 -300 Level Fort Worth Center
06:58PM 33.0264 -96.8583 201° Southwest 241 277 3,500 -540 Descending Fort Worth Center
06:59PM 32.9764 -96.8836 203° Southwest 241 277 3,000 -660 Descending Fort Worth Center
07:01PM 32.8471 -96.8518 140° Southeast  Level Estimated
07:02PM 32.8833 -96.9000 140° Southeast 118 136 1,200  Level Dallas / Fort Worth TRACON
07:02PM 32.8667 -96.8667 121° Southeast 126 145 700 -660 Descending Dallas / Fort Worth TRACON
07:04PM 32.8471 -96.8518 140° Southeast  Level Estimated